Time;durP1;ratioP1;P1;durP2;ratioP2;P2;SDS_P1;SDS_P2;PMS_P1;PMS_P2;Temp;Humidity;BMP_temperature;BMP_pressure;BME280_temperature;BME280_humidity;BME280_pressure;Samples;Min_cycle;Max_cycle;Signal;HPM_P1;HPM_P2
2021/10/08 00:00:49;;;;;;;6.90;6.20;;;10.30;99.90;;;;;;4983020;28;20210;-83
2021/10/08 00:03:15;;;;;;;6.85;6.25;;;10.30;99.90;;;;;;4982749;28;20464;-82
2021/10/08 00:05:42;;;;;;;5.90;5.40;;;10.30;99.90;;;;;;4982974;28;20236;-83
2021/10/08 00:08:10;;;;;;;6.17;5.57;;;10.40;99.90;;;;;;4991247;28;20206;-83
2021/10/08 00:10:37;;;;;;;8.15;7.35;;;10.40;99.90;;;;;;5002241;28;21154;-82
2021/10/08 00:13:04;;;;;;;6.80;6.20;;;10.40;99.90;;;;;;5001727;28;20563;-83
2021/10/08 00:15:31;;;;;;;10.35;6.57;;;10.30;99.90;;;;;;5001735;28;20846;-83
2021/10/08 00:17:57;;;;;;;6.63;6.07;;;10.30;99.90;;;;;;4996944;28;20691;-83
2021/10/08 00:20:24;;;;;;;6.60;6.20;;;10.30;99.90;;;;;;4983498;28;20448;-83
2021/10/08 00:22:51;;;;;;;7.97;7.30;;;10.30;99.90;;;;;;4982316;28;20702;-81
2021/10/08 00:25:19;;;;;;;7.05;6.45;;;10.40;99.90;;;;;;4982059;28;20316;-82
2021/10/08 00:27:46;;;;;;;7.53;6.93;;;10.30;99.90;;;;;;4984405;28;20208;-84
2021/10/08 00:30:12;;;;;;;8.40;7.60;;;10.30;99.90;;;;;;5002271;28;20212;-82
2021/10/08 00:32:39;;;;;;;7.25;6.55;;;10.20;99.90;;;;;;5001594;28;20496;-83
2021/10/08 00:35:07;;;;;;;7.60;6.07;;;10.20;99.90;;;;;;5001675;28;20654;-83
2021/10/08 00:37:33;;;;;;;7.88;7.20;;;10.30;99.90;;;;;;4990942;28;20449;-83
2021/10/08 00:40:00;;;;;;;6.63;6.03;;;10.40;99.90;;;;;;4982284;28;20261;-84
2021/10/08 00:42:30;;;;;;;6.73;5.60;;;10.50;99.90;;;;;;4982384;28;20202;-83
2021/10/08 00:44:57;;;;;;;6.83;6.13;;;10.60;99.90;;;;;;4981380;28;20513;-83
2021/10/08 00:47:23;;;;;;;5.50;5.10;;;10.60;99.90;;;;;;4981868;28;20471;-82
2021/10/08 00:49:51;;;;;;;6.32;5.82;;;10.60;99.90;;;;;;4981673;28;20459;-82
2021/10/08 00:52:18;;;;;;;5.88;5.35;;;10.60;99.90;;;;;;4982234;28;20804;-82
2021/10/08 00:54:45;;;;;;;7.30;6.65;;;10.60;99.90;;;;;;4982402;28;20230;-83
2021/10/08 00:57:13;;;;;;;7.07;6.45;;;10.60;99.90;;;;;;4981478;28;20205;-83
2021/10/08 00:59:42;;;;;;;7.30;6.68;;;10.30;99.90;;;;;;4981809;28;20207;-83
2021/10/08 01:02:09;;;;;;;10.07;7.27;;;10.20;99.90;;;;;;4981954;28;20202;-83
2021/10/08 01:04:36;;;;;;;7.30;6.65;;;10.30;99.90;;;;;;4980749;28;20477;-83
2021/10/08 01:07:03;;;;;;;9.27;7.07;;;10.30;99.90;;;;;;4993447;28;20204;-82
2021/10/08 01:09:29;;;;;;;7.43;6.72;;;10.10;99.90;;;;;;5000956;28;20204;-82
2021/10/08 01:11:56;;;;;;;7.38;6.78;;;10.10;99.90;;;;;;4988960;28;20224;-82
2021/10/08 01:14:23;;;;;;;7.45;6.75;;;10.10;99.90;;;;;;4981503;28;20266;-82
2021/10/08 01:16:51;;;;;;;7.05;6.38;;;10.10;99.90;;;;;;4991791;28;20215;-84
2021/10/08 01:19:18;;;;;;;6.82;5.75;;;10.10;99.90;;;;;;5000507;28;20208;-83
2021/10/08 01:21:46;;;;;;;8.25;7.45;;;9.90;99.90;;;;;;4993870;28;20202;-82
2021/10/08 01:24:13;;;;;;;7.88;7.18;;;9.90;99.90;;;;;;4980100;28;20233;-81
2021/10/08 01:26:39;;;;;;;8.55;7.80;;;9.90;99.90;;;;;;4981053;28;20213;-82
2021/10/08 01:29:10;;;;;;;8.77;8.07;;;9.80;99.90;;;;;;4980951;28;20584;-82
2021/10/08 01:31:37;;;;;;;9.32;7.63;;;9.70;99.90;;;;;;4988667;28;20255;-82
2021/10/08 01:34:04;;;;;;;7.47;6.78;;;9.70;99.90;;;;;;5000027;28;20239;-83
2021/10/08 01:36:32;;;;;;;9.15;8.25;;;9.70;99.90;;;;;;4983376;28;20213;-81
2021/10/08 01:39:00;;;;;;;8.80;8.00;;;9.60;99.90;;;;;;4980526;28;20220;-81
2021/10/08 01:41:27;;;;;;;8.20;7.53;;;9.60;99.90;;;;;;4996251;28;20205;-82
2021/10/08 01:43:54;;;;;;;9.25;8.18;;;9.60;99.90;;;;;;4999507;28;20312;-83
2021/10/08 01:46:21;;;;;;;8.55;7.75;;;9.50;99.90;;;;;;4999632;28;20215;-82
2021/10/08 01:48:47;;;;;;;9.77;8.80;;;9.50;99.90;;;;;;5000154;28;20211;-82
2021/10/08 01:51:14;;;;;;;11.18;10.10;;;9.40;99.90;;;;;;4998746;28;20205;-82
2021/10/08 01:53:41;;;;;;;9.48;8.60;;;9.40;99.90;;;;;;4994657;28;20720;-81
2021/10/08 01:56:09;;;;;;;8.60;7.90;;;9.40;99.90;;;;;;4981006;28;20209;-82
2021/10/08 01:58:36;;;;;;;9.75;8.88;;;9.40;99.90;;;;;;4980435;28;20286;-82
2021/10/08 02:01:03;;;;;;;9.60;8.50;;;9.40;99.90;;;;;;4981417;28;20220;-83
2021/10/08 02:03:30;;;;;;;10.90;9.77;;;9.20;99.90;;;;;;4980683;28;20222;-81
2021/10/08 02:05:56;;;;;;;11.20;10.00;;;9.00;99.90;;;;;;4980328;28;20219;-83
2021/10/08 02:08:23;;;;;;;10.23;9.20;;;8.90;99.90;;;;;;4980405;28;20215;-82
2021/10/08 02:10:50;;;;;;;11.90;10.15;;;8.70;99.90;;;;;;4980637;28;20674;-81
2021/10/08 02:13:19;;;;;;;10.90;9.30;;;8.60;99.90;;;;;;4983059;28;20228;-82
2021/10/08 02:15:46;;;;;;;10.27;9.27;;;8.60;99.90;;;;;;4983207;28;20287;-82
2021/10/08 02:18:13;;;;;;;9.10;8.30;;;8.60;99.90;;;;;;4986750;28;20212;-83
2021/10/08 02:20:41;;;;;;;10.75;9.18;;;8.60;99.90;;;;;;4983839;28;20212;-81
2021/10/08 02:23:10;;;;;;;12.38;11.15;;;8.60;99.90;;;;;;4992126;28;20199;-81
2021/10/08 02:25:36;;;;;;;21.27;9.68;;;8.50;99.90;;;;;;4999347;28;20234;-82
2021/10/08 02:28:03;;;;;;;12.20;10.65;;;8.50;99.90;;;;;;4990478;28;20204;-82
2021/10/08 02:30:32;;;;;;;11.27;10.20;;;8.40;99.90;;;;;;4980081;28;20212;-80
2021/10/08 02:32:58;;;;;;;11.88;10.68;;;8.50;99.90;;;;;;4983518;28;20222;-82
2021/10/08 02:35:25;;;;;;;10.98;9.88;;;8.60;99.90;;;;;;4978522;28;20236;-82
2021/10/08 02:37:52;;;;;;;13.23;11.45;;;8.70;99.90;;;;;;4981391;28;20212;-83
2021/10/08 02:40:19;;;;;;;11.20;10.05;;;8.80;99.90;;;;;;4998687;28;20223;-81
2021/10/08 02:42:45;;;;;;;12.20;9.60;;;8.80;99.90;;;;;;4998134;28;20567;-82
2021/10/08 02:45:12;;;;;;;9.80;8.90;;;8.90;99.90;;;;;;4997874;28;20225;-82
2021/10/08 02:47:40;;;;;;;11.80;10.02;;;8.90;99.90;;;;;;4998397;28;20200;-81
2021/10/08 02:50:08;;;;;;;10.68;9.55;;;8.90;99.90;;;;;;4998613;28;20748;-83
2021/10/08 02:52:35;;;;;;;12.73;10.25;;;8.90;99.90;;;;;;4998407;28;20220;-83
2021/10/08 02:55:02;;;;;;;11.23;9.90;;;8.80;99.90;;;;;;4997991;28;20219;-82
2021/10/08 02:57:28;;;;;;;10.38;9.45;;;8.80;99.90;;;;;;4997778;28;20199;-81
2021/10/08 02:59:55;;;;;;;11.65;10.40;;;8.70;99.90;;;;;;4998449;28;20211;-82
2021/10/08 03:02:22;;;;;;;12.82;9.57;;;8.70;99.90;;;;;;4998134;28;20207;-82
2021/10/08 03:04:50;;;;;;;11.52;9.98;;;8.60;99.90;;;;;;4998589;28;20702;-83
2021/10/08 03:07:17;;;;;;;13.75;12.32;;;8.50;99.90;;;;;;4997562;28;20207;-82
2021/10/08 03:09:44;;;;;;;14.38;12.00;;;8.40;99.90;;;;;;4998201;28;20207;-83
2021/10/08 03:12:10;;;;;;;14.10;11.75;;;8.40;99.90;;;;;;4989805;28;20204;-83
2021/10/08 03:14:37;;;;;;;13.27;11.93;;;8.40;99.90;;;;;;4991299;28;20590;-82
2021/10/08 03:17:04;;;;;;;13.23;11.93;;;8.40;99.90;;;;;;4990609;28;20197;-82
2021/10/08 03:19:31;;;;;;;16.17;12.13;;;8.50;99.90;;;;;;4978920;28;20212;-82
2021/10/08 03:21:59;;;;;;;12.02;10.93;;;8.50;99.90;;;;;;4978373;28;20201;-81
2021/10/08 03:24:26;;;;;;;12.50;10.68;;;8.50;99.90;;;;;;4978794;28;20231;-81
2021/10/08 03:26:53;;;;;;;12.30;11.00;;;8.50;99.90;;;;;;4982498;28;20203;-83
2021/10/08 03:29:19;;;;;;;12.38;11.10;;;8.50;99.90;;;;;;4997385;28;20231;-82
2021/10/08 03:31:46;;;;;;;12.05;10.73;;;8.50;99.90;;;;;;4997055;28;20208;-81
2021/10/08 03:34:13;;;;;;;11.93;10.63;;;8.60;99.90;;;;;;4997720;28;20239;-82
2021/10/08 03:36:44;;;;;;;13.20;11.90;;;8.50;99.90;;;;;;4997779;28;20211;-82
2021/10/08 03:39:18;;;;;;;15.55;11.32;;;8.30;99.90;;;;;;4997940;28;20195;-82
2021/10/08 03:41:45;;;;;;;14.43;12.23;;;8.40;99.90;;;;;;4998107;28;20211;-82
2021/10/08 03:44:12;;;;;;;14.02;12.00;;;8.30;99.90;;;;;;4998183;28;20234;-82
2021/10/08 03:46:42;;;;;;;16.40;12.88;;;8.10;99.90;;;;;;4997402;28;20246;-83
2021/10/08 03:49:16;;;;;;;18.83;15.48;;;7.90;99.90;;;;;;4998469;28;20271;-82
2021/10/08 03:51:44;;;;;;;15.80;14.25;;;7.70;99.90;;;;;;4998149;28;20200;-82
2021/10/08 03:54:13;;;;;;;18.08;16.10;;;7.70;99.90;;;;;;4998404;28;20231;-83
2021/10/08 03:56:40;;;;;;;21.20;17.35;;;7.70;99.90;;;;;;4997820;28;20572;-80
2021/10/08 03:59:08;;;;;;;17.48;15.45;;;7.80;99.90;;;;;;5002953;28;20606;-79
2021/10/08 04:01:35;;;;;;;18.27;13.52;;;7.90;99.90;;;;;;4985045;28;20204;-81
2021/10/08 04:04:04;;;;;;;19.58;17.58;;;7.90;99.90;;;;;;4985386;28;20226;-81
2021/10/08 04:06:32;;;;;;;13.85;12.55;;;8.00;99.90;;;;;;4981675;28;20204;-83
2021/10/08 04:08:59;;;;;;;15.32;13.82;;;8.10;99.90;;;;;;4979408;28;20208;-82
2021/10/08 04:11:27;;;;;;;18.05;14.10;;;8.10;99.90;;;;;;4995583;28;20218;-82
2021/10/08 04:13:54;;;;;;;16.00;12.98;;;7.90;99.90;;;;;;4997792;28;20228;-83
2021/10/08 04:16:22;;;;;;;16.73;13.60;;;7.90;99.90;;;;;;4982008;28;20208;-83
2021/10/08 04:18:49;;;;;;;14.63;12.98;;;8.00;99.90;;;;;;4978252;28;20213;-83
2021/10/08 04:21:16;;;;;;;16.38;13.60;;;7.80;99.90;;;;;;4978438;28;20690;-83
2021/10/08 04:23:43;;;;;;;14.35;12.80;;;8.00;99.90;;;;;;4979065;28;20205;-83
2021/10/08 04:26:10;;;;;;;14.13;12.73;;;8.00;99.90;;;;;;4978534;28;20221;-83
2021/10/08 04:28:38;;;;;;;14.00;12.60;;;8.10;99.90;;;;;;4980025;28;20204;-82
2021/10/08 04:31:05;;;;;;;16.98;13.32;;;8.10;99.90;;;;;;4996184;28;20566;-82
2021/10/08 04:33:32;;;;;;;14.45;13.02;;;7.90;99.90;;;;;;4994898;28;20307;-81
2021/10/08 04:36:00;;;;;;;17.27;15.50;;;7.80;99.90;;;;;;4976186;28;20279;-82
2021/10/08 04:38:28;;;;;;;14.32;13.02;;;7.80;99.90;;;;;;4976752;28;20670;-81
2021/10/08 04:40:55;;;;;;;17.70;15.40;;;7.80;99.90;;;;;;4999260;28;20566;-81
2021/10/08 04:43:22;;;;;;;18.10;15.73;;;7.60;99.90;;;;;;4999451;28;20208;-82
2021/10/08 04:45:51;;;;;;;18.40;14.38;;;7.70;99.90;;;;;;4980701;28;20216;-82
2021/10/08 04:48:17;;;;;;;20.33;15.65;;;7.80;99.90;;;;;;4980500;28;20213;-82
2021/10/08 04:50:44;;;;;;;23.50;15.15;;;7.80;99.90;;;;;;4998033;28;20201;-81
2021/10/08 04:53:16;;;;;;;19.30;15.85;;;7.70;99.90;;;;;;4999607;28;20220;-81
2021/10/08 04:55:43;;;;;;;18.45;14.23;;;7.60;99.90;;;;;;4981501;28;20236;-81
2021/10/08 04:58:11;;;;;;;20.50;17.08;;;7.60;99.90;;;;;;4986333;28;20705;-81
2021/10/08 05:00:38;;;;;;;17.33;15.52;;;7.50;99.90;;;;;;4999443;28;20674;-81
2021/10/08 05:03:12;;;;;;;18.27;14.38;;;7.70;99.90;;;;;;4994112;28;20201;-81
2021/10/08 05:05:39;;;;;;;22.50;19.58;;;7.80;99.90;;;;;;4979604;28;20229;-82
2021/10/08 05:08:07;;;;;;;21.92;15.25;;;7.80;99.90;;;;;;4984021;28;20196;-82
2021/10/08 05:10:33;;;;;;;17.73;15.82;;;7.80;99.90;;;;;;4999300;28;20687;-81
2021/10/08 05:13:00;;;;;;;17.38;15.43;;;7.90;99.90;;;;;;4995277;28;20235;-82
2021/10/08 05:15:27;;;;;;;23.33;16.27;;;7.90;99.90;;;;;;4999075;28;20231;-82
2021/10/08 05:17:54;;;;;;;17.15;15.35;;;7.80;99.90;;;;;;4996732;28;20212;-82
2021/10/08 05:20:22;;;;;;;17.15;15.35;;;7.60;99.90;;;;;;4979375;28;20201;-82
2021/10/08 05:22:49;;;;;;;19.10;16.95;;;7.50;99.90;;;;;;4980365;28;20224;-82
2021/10/08 05:25:16;;;;;;;19.35;15.98;;;7.50;99.90;;;;;;4998847;28;20250;-82
2021/10/08 05:27:43;;;;;;;25.83;18.02;;;7.60;99.90;;;;;;4988571;28;20220;-82
2021/10/08 05:30:11;;;;;;;18.98;17.00;;;7.60;99.90;;;;;;4979589;28;20243;-82
2021/10/08 05:32:38;;;;;;;21.13;17.13;;;7.70;99.90;;;;;;4988240;28;20218;-82
2021/10/08 05:35:05;;;;;;;19.17;17.17;;;7.80;99.90;;;;;;4998731;28;20240;-81
2021/10/08 05:37:34;;;;;;;18.40;16.17;;;7.80;99.90;;;;;;4990679;28;20205;-82
2021/10/08 05:40:00;;;;;;;17.15;14.90;;;7.80;99.90;;;;;;4990620;28;20208;-82
2021/10/08 05:42:27;;;;;;;26.23;22.52;;;7.80;99.90;;;;;;4992322;28;20205;-82
2021/10/08 05:44:54;;;;;;;21.70;16.33;;;7.80;99.90;;;;;;4979150;28;20694;-81
2021/10/08 05:47:21;;;;;;;18.52;16.63;;;7.60;99.90;;;;;;4983704;28;20585;-81
2021/10/08 05:49:47;;;;;;;20.30;18.15;;;7.60;99.90;;;;;;4998766;28;20218;-81
2021/10/08 05:52:14;;;;;;;16.83;15.13;;;7.70;99.90;;;;;;4993963;28;20215;-81
2021/10/08 05:54:42;;;;;;;18.65;16.33;;;7.90;99.90;;;;;;4979519;28;20267;-81
2021/10/08 05:57:09;;;;;;;15.95;14.23;;;7.90;99.90;;;;;;4980934;28;20209;-82
2021/10/08 05:59:36;;;;;;;16.15;14.60;;;8.00;99.90;;;;;;4999021;28;20210;-82
2021/10/08 06:02:03;;;;;;;18.10;14.27;;;8.10;99.90;;;;;;4997042;28;20212;-81
2021/10/08 06:04:30;;;;;;;15.27;13.55;;;8.10;99.90;;;;;;4979384;28;20225;-82
2021/10/08 06:06:57;;;;;;;19.10;15.40;;;8.10;99.90;;;;;;4978845;28;20575;-81
2021/10/08 06:09:23;;;;;;;18.60;16.45;;;8.00;99.90;;;;;;4978908;28;20221;-81
2021/10/08 06:11:51;;;;;;;19.15;16.30;;;8.00;99.90;;;;;;4978780;28;20841;-82
2021/10/08 06:14:18;;;;;;;26.55;16.95;;;8.10;99.90;;;;;;4996774;28;20725;-81
2021/10/08 06:16:45;;;;;;;22.58;17.70;;;8.10;99.90;;;;;;4997701;28;20712;-81
2021/10/08 06:19:12;;;;;;;21.33;18.73;;;7.90;99.90;;;;;;4981004;28;20212;-81
2021/10/08 06:21:39;;;;;;;22.67;18.38;;;8.00;99.90;;;;;;4984807;28;20204;-81
2021/10/08 06:24:06;;;;;;;22.02;18.88;;;8.10;99.90;;;;;;4997911;28;20231;-81
2021/10/08 06:26:33;;;;;;;23.17;19.08;;;8.10;99.90;;;;;;4992731;28;20585;-82
2021/10/08 06:29:01;;;;;;;22.88;18.15;;;8.20;99.90;;;;;;4978720;28;20208;-82
2021/10/08 06:31:28;;;;;;;29.08;21.80;;;8.30;99.90;;;;;;4982182;28;20214;-82
2021/10/08 06:33:54;;;;;;;30.50;21.70;;;8.20;99.90;;;;;;4997577;28;20232;-82
2021/10/08 06:36:21;;;;;;;28.58;21.08;;;8.30;99.90;;;;;;4995178;28;20270;-81
2021/10/08 06:38:48;;;;;;;22.55;19.25;;;8.30;99.90;;;;;;4978090;28;20216;-82
2021/10/08 06:41:15;;;;;;;24.52;19.25;;;8.50;99.90;;;;;;4979594;28;20220;-82
2021/10/08 06:43:41;;;;;;;23.02;18.15;;;8.60;99.90;;;;;;4988586;28;20201;-82
2021/10/08 06:46:10;;;;;;;24.98;20.80;;;8.70;99.90;;;;;;4978002;28;20208;-82
2021/10/08 06:48:36;;;;;;;24.60;19.20;;;8.70;99.90;;;;;;4978297;28;20210;-82
2021/10/08 06:51:04;;;;;;;23.60;19.92;;;8.70;99.90;;;;;;4979584;28;20225;-82
2021/10/08 06:53:31;;;;;;;23.13;20.00;;;8.80;99.90;;;;;;4990820;28;20372;-82
2021/10/08 06:55:58;;;;;;;24.17;19.92;;;8.90;99.90;;;;;;4990511;28;20202;-82
2021/10/08 06:58:25;;;;;;;24.63;20.17;;;9.00;99.90;;;;;;4978503;28;20679;-81
2021/10/08 07:00:53;;;;;;;22.30;18.65;;;9.20;99.90;;;;;;4984724;28;20458;-81
2021/10/08 07:03:22;;;;;;;23.75;21.30;;;9.10;99.90;;;;;;4998310;28;20228;-82
2021/10/08 07:05:49;;;;;;;25.35;21.48;;;9.10;99.90;;;;;;4983155;28;20255;-81
2021/10/08 07:08:16;;;;;;;26.13;22.58;;;9.10;99.90;;;;;;4983795;28;20212;-81
2021/10/08 07:10:43;;;;;;;24.48;21.98;;;9.10;99.90;;;;;;5004337;28;20208;-82
2021/10/08 07:13:10;;;;;;;25.52;21.40;;;9.10;99.90;;;;;;5005713;28;20239;-81
2021/10/08 07:15:37;;;;;;;23.20;20.23;;;9.20;99.90;;;;;;4994794;28;20235;-82
2021/10/08 07:18:06;;;;;;;24.02;20.67;;;9.40;99.90;;;;;;4993443;28;20206;-82
2021/10/08 07:20:34;;;;;;;25.02;20.48;;;9.50;99.90;;;;;;4982165;28;20206;-82
2021/10/08 07:23:02;;;;;;;22.55;19.17;;;9.60;99.90;;;;;;5000649;28;20215;-82
2021/10/08 07:25:31;;;;;;;25.00;20.90;;;9.80;99.90;;;;;;4999196;28;20285;-82
2021/10/08 07:27:58;;;;;;;22.77;20.20;;;9.80;99.90;;;;;;5003788;28;20908;-83
2021/10/08 07:30:25;;;;;;;20.77;16.95;;;10.00;99.90;;;;;;4997837;28;20461;-83
2021/10/08 07:32:52;;;;;;;19.10;17.10;;;10.00;99.90;;;;;;4988113;28;20198;-83
2021/10/08 07:35:19;;;;;;;18.15;16.33;;;10.20;99.90;;;;;;5000228;28;20926;-83
2021/10/08 07:37:48;;;;;;;22.13;16.90;;;10.40;99.90;;;;;;5001336;28;20223;-82
2021/10/08 07:40:15;;;;;;;17.83;15.93;;;10.50;99.90;;;;;;4984618;28;20221;-82
2021/10/08 07:42:43;;;;;;;16.17;14.43;;;10.60;99.90;;;;;;4992579;28;20453;-83
2021/10/08 07:45:11;;;;;;;15.67;14.07;;;10.70;99.90;;;;;;4986927;28;20225;-81
2021/10/08 07:47:38;;;;;;;12.90;11.53;;;10.80;99.90;;;;;;4985876;28;20451;-83
2021/10/08 07:50:06;;;;;;;14.77;13.17;;;10.80;99.90;;;;;;4986425;28;20454;-81
2021/10/08 07:52:33;;;;;;;14.20;12.90;;;10.90;99.90;;;;;;4986520;28;20454;-82
2021/10/08 07:55:01;;;;;;;14.17;12.70;;;11.00;99.90;;;;;;4985881;28;20489;-83
2021/10/08 07:57:28;;;;;;;15.33;12.60;;;11.10;99.90;;;;;;4986542;28;20454;-82
2021/10/08 07:59:55;;;;;;;13.53;11.30;;;11.20;99.90;;;;;;4988736;28;21061;-83
2021/10/08 08:02:23;;;;;;;12.57;11.00;;;11.40;99.90;;;;;;4990453;28;20465;-83
2021/10/08 08:04:49;;;;;;;12.33;11.30;;;11.50;99.90;;;;;;4989117;28;21015;-83
2021/10/08 08:07:16;;;;;;;11.67;10.53;;;11.60;99.90;;;;;;4990479;28;20508;-83
2021/10/08 08:09:43;;;;;;;11.37;10.20;;;11.70;99.90;;;;;;4989405;28;20451;-81
2021/10/08 08:12:11;;;;;;;12.80;11.57;;;11.80;99.90;;;;;;4981700;28;20485;-81
2021/10/08 08:14:38;;;;;;;10.73;9.57;;;11.90;99.90;;;;;;4986752;28;20490;-82
2021/10/08 08:17:04;;;;;;;12.20;10.90;;;11.90;99.90;;;;;;4998337;28;20453;-82
2021/10/08 08:19:31;;;;;;;11.97;10.83;;;12.10;99.90;;;;;;5000744;28;20453;-82
2021/10/08 08:21:58;;;;;;;12.40;11.30;;;12.20;99.90;;;;;;4981923;28;20460;-83
2021/10/08 08:24:25;;;;;;;11.97;9.93;;;12.20;99.90;;;;;;4990280;28;20473;-82
2021/10/08 08:26:52;;;;;;;12.57;10.70;;;12.40;99.90;;;;;;4992017;28;20462;-83
2021/10/08 08:29:20;;;;;;;10.47;9.47;;;12.50;99.90;;;;;;4989099;28;20458;-83
2021/10/08 08:31:46;;;;;;;11.53;10.33;;;12.60;99.90;;;;;;5001592;28;20454;-83
2021/10/08 08:34:13;;;;;;;11.20;10.13;;;12.70;99.90;;;;;;4999609;28;20500;-85
2021/10/08 08:36:40;;;;;;;10.00;8.97;;;12.70;99.90;;;;;;5002003;28;20842;-85
2021/10/08 08:39:08;;;;;;;10.23;9.20;;;12.80;99.90;;;;;;5001121;28;20458;-85
2021/10/08 08:41:36;;;;;;;10.70;9.80;;;12.90;99.90;;;;;;4992286;28;20463;-85
2021/10/08 08:44:04;;;;;;;10.43;9.47;;;13.00;99.90;;;;;;4990773;28;20471;-85
2021/10/08 08:46:33;;;;;;;10.93;9.90;;;13.10;99.90;;;;;;4982921;28;20455;-85
2021/10/08 08:49:01;;;;;;;10.87;9.80;;;13.10;99.90;;;;;;4988427;28;20458;-85
2021/10/08 08:51:28;;;;;;;9.87;8.93;;;13.20;99.90;;;;;;4983236;28;20462;-85
2021/10/08 08:53:57;;;;;;;11.30;10.40;;;13.40;99.90;;;;;;4983199;28;20489;-85
2021/10/08 08:56:24;;;;;;;10.47;9.50;;;13.60;99.90;;;;;;4982682;28;20459;-85
2021/10/08 08:58:59;;;;;;;10.50;9.50;;;13.70;99.90;;;;;;4983418;28;20456;-85
2021/10/08 09:01:25;;;;;;;11.43;10.30;;;13.80;99.90;;;;;;4982902;28;20985;-85
2021/10/08 09:04:12;;;;;;;11.23;10.30;;;13.90;99.90;;;;;;4982833;28;20487;-85
2021/10/08 09:06:41;;;;;;;12.60;10.70;;;14.00;99.90;;;;;;4981598;28;20467;-85
2021/10/08 09:09:17;;;;;;;9.67;8.70;;;14.20;99.90;;;;;;4983256;28;20458;-85
2021/10/08 09:11:45;;;;;;;10.10;9.20;;;14.30;99.90;;;;;;4982919;28;20459;-85
2021/10/08 09:14:20;;;;;;;11.00;10.00;;;14.30;99.90;;;;;;4983195;28;20486;-86
2021/10/08 09:17:11;;;;;;;12.83;9.70;;;14.50;99.90;;;;;;4982515;28;20828;-85
2021/10/08 09:19:57;;;;;;;10.27;9.20;;;14.70;99.90;;;;;;4983183;28;20451;-85
2021/10/08 09:22:26;;;;;;;10.13;8.70;;;14.80;99.90;;;;;;4983925;28;20533;-86
2021/10/08 09:24:54;;;;;;;9.63;8.70;;;14.90;99.90;;;;;;4999877;28;20486;-85
2021/10/08 09:27:23;;;;;;;8.83;8.13;;;15.00;99.90;;;;;;4998862;28;20441;-84
2021/10/08 09:29:53;;;;;;;10.83;9.73;;;15.20;99.90;;;;;;4999952;28;20470;-85
2021/10/08 09:32:22;;;;;;;11.30;9.17;;;15.20;99.90;;;;;;4986110;28;20459;-86
2021/10/08 09:34:49;;;;;;;12.20;8.70;;;15.10;99.90;;;;;;4982580;28;20499;-86
2021/10/08 09:37:18;;;;;;;9.37;8.57;;;14.70;99.90;;;;;;4982141;28;20456;-86
2021/10/08 09:39:50;;;;;;;12.27;9.57;;;15.00;99.90;;;;;;4982845;28;20461;-86
2021/10/08 09:42:19;;;;;;;9.63;8.03;;;14.90;99.90;;;;;;4983103;28;20476;-86
2021/10/08 09:44:48;;;;;;;11.27;9.93;;;15.00;99.90;;;;;;4982162;28;20511;-86
2021/10/08 09:47:18;;;;;;;12.43;11.17;;;14.90;99.90;;;;;;4982268;28;20456;-86
2021/10/08 09:49:46;;;;;;;13.43;12.10;;;14.70;99.90;;;;;;4982712;28;20448;-86
2021/10/08 09:52:25;;;;;;;10.80;9.90;;;14.70;99.90;;;;;;4982128;28;20833;-86
2021/10/08 09:54:54;;;;;;;13.23;11.87;;;14.70;99.90;;;;;;4982492;28;20503;-86
2021/10/08 09:57:22;;;;;;;12.43;11.03;;;14.40;99.90;;;;;;4982367;28;20447;-86
2021/10/08 09:59:50;;;;;;;11.77;10.53;;;14.40;99.90;;;;;;4982247;28;20874;-86
2021/10/08 10:02:17;;;;;;;13.13;11.93;;;14.40;99.90;;;;;;4981979;28;20453;-86
2021/10/08 10:04:49;;;;;;;12.97;11.70;;;14.20;99.90;;;;;;4981872;28;20468;-85
2021/10/08 10:07:17;;;;;;;13.67;11.70;;;14.10;99.90;;;;;;4977762;28;20835;-85
2021/10/08 10:09:46;;;;;;;12.10;11.00;;;13.90;99.90;;;;;;4978206;28;20452;-85
2021/10/08 10:12:15;;;;;;;13.50;12.23;;;13.80;99.90;;;;;;4977562;28;20984;-86
2021/10/08 10:14:45;;;;;;;13.40;11.50;;;13.90;99.90;;;;;;4977128;28;20549;-85
2021/10/08 10:17:13;;;;;;;14.57;11.43;;;13.90;99.90;;;;;;4976461;28;20495;-85
2021/10/08 10:19:44;;;;;;;13.00;11.70;;;13.90;99.90;;;;;;4977735;28;20459;-86
2021/10/08 10:22:14;;;;;;;11.90;10.70;;;14.00;99.90;;;;;;4977801;28;20823;-85
2021/10/08 10:24:43;;;;;;;11.63;10.47;;;14.10;99.90;;;;;;4979286;28;20464;-84
2021/10/08 10:27:11;;;;;;;13.07;11.00;;;14.00;99.90;;;;;;4984093;28;20495;-84
2021/10/08 10:29:40;;;;;;;14.30;11.50;;;14.00;99.90;;;;;;4977269;28;20463;-84
2021/10/08 10:32:08;;;;;;;10.97;9.97;;;14.10;99.90;;;;;;4977088;28;20457;-84
2021/10/08 10:34:36;;;;;;;13.43;11.17;;;14.40;99.90;;;;;;4976672;28;20510;-83
2021/10/08 10:37:04;;;;;;;11.07;9.97;;;14.60;99.90;;;;;;4976522;28;20808;-86
2021/10/08 10:39:31;;;;;;;12.40;11.20;;;14.80;99.90;;;;;;4975814;28;20451;-84
2021/10/08 10:42:16;;;;;;;12.33;11.00;;;14.90;99.90;;;;;;4975088;28;20457;-84
2021/10/08 10:45:11;;;;;;;12.53;11.50;;;15.10;99.90;;;;;;4975148;28;20479;-84
2021/10/08 10:47:40;;;;;;;11.37;10.07;;;15.10;99.90;;;;;;4975834;28;20455;-84
2021/10/08 10:50:13;;;;;;;13.67;12.00;;;15.20;99.90;;;;;;4975327;28;20465;-84
2021/10/08 10:52:50;;;;;;;10.87;9.90;;;15.30;99.90;;;;;;4991427;28;20460;-85
2021/10/08 10:55:17;;;;;;;12.40;10.70;;;15.40;99.90;;;;;;4989078;28;20577;-84
2021/10/08 11:04:27;;;;;;;11.77;10.10;;;15.70;99.90;;;;;;4993362;28;20542;-85
2021/10/08 11:07:04;;;;;;;11.33;10.27;;;15.80;99.90;;;;;;4992910;28;20473;-84
2021/10/08 11:09:32;;;;;;;11.53;10.33;;;15.90;99.90;;;;;;4993719;28;20509;-85
2021/10/08 11:12:29;;;;;;;12.63;10.97;;;15.90;99.90;;;;;;4993847;28;20447;-85
2021/10/08 11:15:34;;;;;;;10.37;9.47;;;16.00;99.90;;;;;;4984505;28;20844;-84
2021/10/08 11:18:02;;;;;;;12.70;10.60;;;16.00;99.90;;;;;;4978206;28;20465;-86
2021/10/08 11:20:49;;;;;;;12.67;10.80;;;15.70;99.90;;;;;;4977593;28;20451;-84
2021/10/08 11:23:24;;;;;;;12.83;9.73;;;15.80;99.90;;;;;;4981312;28;20490;-84
2021/10/08 11:25:53;;;;;;;10.70;9.70;;;15.70;99.90;;;;;;4993514;28;20455;-84
2021/10/08 11:28:27;;;;;;;11.53;9.37;;;15.90;99.90;;;;;;4986535;28;20459;-85
2021/10/08 11:30:54;;;;;;;12.47;11.20;;;15.40;99.90;;;;;;4974214;28;20491;-83
2021/10/08 11:33:32;;;;;;;12.67;11.33;;;15.30;99.90;;;;;;4981199;28;20458;-84
2021/10/08 11:36:21;;;;;;;11.77;10.53;;;15.20;99.90;;;;;;4993330;28;20553;-85
2021/10/08 11:38:49;;;;;;;12.27;11.07;;;15.10;99.90;;;;;;4998167;28;20440;-86
2021/10/08 11:41:18;;;;;;;12.13;8.90;;;15.00;99.90;;;;;;4997020;28;20842;-84
2021/10/08 11:44:08;;;;;;;11.40;10.30;;;15.00;99.90;;;;;;4996665;28;20506;-86
2021/10/08 11:46:41;;;;;;;12.03;10.87;;;15.00;99.90;;;;;;4997259;28;20451;-85
2021/10/08 11:49:25;;;;;;;11.70;10.07;;;14.90;99.90;;;;;;4976632;28;20519;-84
2021/10/08 11:51:57;;;;;;;12.17;11.00;;;14.90;99.90;;;;;;4978107;28;20497;-85
2021/10/08 11:54:30;;;;;;;11.27;9.97;;;15.10;99.90;;;;;;4997365;28;20558;-84
2021/10/08 11:57:01;;;;;;;10.67;9.77;;;15.30;99.90;;;;;;4996984;28;20489;-82
2021/10/08 11:59:28;;;;;;;10.37;9.37;;;15.10;99.90;;;;;;5003682;28;20462;-81
2021/10/08 12:02:13;;;;;;;11.33;10.17;;;15.10;99.90;;;;;;5007154;28;20963;-81
2021/10/08 12:04:41;;;;;;;10.60;9.40;;;15.10;99.90;;;;;;4979986;28;20470;-82
2021/10/08 12:07:13;;;;;;;11.37;10.07;;;15.10;99.90;;;;;;4979658;28;20449;-81
2021/10/08 12:09:40;;;;;;;11.33;10.10;;;15.30;99.90;;;;;;4979313;28;20444;-82
2021/10/08 12:12:15;;;;;;;12.90;11.60;;;15.30;99.90;;;;;;4985240;28;20490;-84
2021/10/08 12:14:46;;;;;;;11.00;9.90;;;15.00;99.90;;;;;;4988449;28;20487;-85
2021/10/08 12:17:15;;;;;;;10.63;9.53;;;15.20;99.90;;;;;;4987399;28;20490;-84
2021/10/08 12:25:59;;;;;;;14.13;10.70;;;15.00;99.90;;;;;;5039588;23;20658;-82
2021/10/08 12:28:26;;;;;;;10.83;9.90;;;14.80;99.90;;;;;;4995846;28;20469;-84
2021/10/08 12:30:56;;;;;;;11.30;10.13;;;15.00;99.90;;;;;;4978575;28;20524;-84
2021/10/08 12:33:31;;;;;;;12.93;11.23;;;14.90;99.90;;;;;;4978897;28;20455;-83
2021/10/08 12:36:25;;;;;;;11.73;10.53;;;14.90;99.90;;;;;;4978071;28;20479;-83
2021/10/08 12:39:04;;;;;;;9.67;8.87;;;14.70;99.90;;;;;;4973879;28;20457;-83
2021/10/08 12:41:39;;;;;;;11.93;10.63;;;14.80;99.90;;;;;;4960748;28;20459;-83
2021/10/08 12:44:13;;;;;;;10.17;9.17;;;15.00;99.90;;;;;;4957386;29;20476;-84
2021/10/08 12:46:42;;;;;;;13.00;10.93;;;14.90;99.90;;;;;;4962787;28;20456;-81
2021/10/08 12:49:10;;;;;;;12.37;11.00;;;15.00;99.90;;;;;;4975590;28;20460;-82
2021/10/08 12:51:48;;;;;;;11.13;10.23;;;15.00;99.90;;;;;;4970859;28;20488;-82
2021/10/08 12:54:24;;;;;;;11.60;10.50;;;15.10;99.90;;;;;;4962100;28;20482;-83
2021/10/08 12:57:13;;;;;;;10.93;9.93;;;14.90;99.90;;;;;;4971946;28;20901;-84
2021/10/08 12:59:54;;;;;;;13.00;10.37;;;14.90;99.90;;;;;;4956873;29;20469;-83